sensor_id;sensor_type;location;lat;lon;timestamp;P1;durP1;ratioP1;P2;durP2;ratioP2
31808;SDS011;18379;48.208;-1.518;2023-04-24T00:03:32;34.93;;;32.63;;
31808;SDS011;18379;48.208;-1.518;2023-04-24T00:08:33;34.80;;;32.57;;
31808;SDS011;18379;48.208;-1.518;2023-04-24T00:13:37;41.07;;;37.93;;
31808;SDS011;18379;48.208;-1.518;2023-04-24T00:18:38;36.93;;;34.37;;
31808;SDS011;18379;48.208;-1.518;2023-04-24T00:23:38;38.63;;;35.83;;
31808;SDS011;18379;48.208;-1.518;2023-04-24T00:28:39;37.63;;;35.03;;
31808;SDS011;18379;48.208;-1.518;2023-04-24T00:33:40;39.83;;;36.77;;
31808;SDS011;18379;48.208;-1.518;2023-04-24T00:38:41;38.10;;;35.10;;
31808;SDS011;18379;48.208;-1.518;2023-04-24T00:43:42;37.80;;;35.00;;
31808;SDS011;18379;48.208;-1.518;2023-04-24T00:48:43;47.83;;;43.97;;
31808;SDS011;18379;48.208;-1.518;2023-04-24T00:53:44;48.73;;;44.93;;
31808;SDS011;18379;48.208;-1.518;2023-04-24T00:58:44;49.27;;;45.33;;
31808;SDS011;18379;48.208;-1.518;2023-04-24T01:03:45;49.10;;;44.80;;
31808;SDS011;18379;48.208;-1.518;2023-04-24T01:08:47;50.23;;;45.80;;
31808;SDS011;18379;48.208;-1.518;2023-04-24T01:13:48;52.43;;;48.23;;
31808;SDS011;18379;48.208;-1.518;2023-04-24T01:18:49;54.97;;;50.43;;
31808;SDS011;18379;48.208;-1.518;2023-04-24T01:23:50;51.23;;;46.93;;
31808;SDS011;18379;48.208;-1.518;2023-04-24T01:28:51;53.87;;;49.23;;
31808;SDS011;18379;48.208;-1.518;2023-04-24T01:33:52;38.00;;;35.13;;
31808;SDS011;18379;48.208;-1.518;2023-04-24T01:38:54;35.90;;;33.77;;
31808;SDS011;18379;48.208;-1.518;2023-04-24T01:43:56;35.80;;;33.50;;
31808;SDS011;18379;48.208;-1.518;2023-04-24T01:48:58;37.13;;;34.70;;
31808;SDS011;18379;48.208;-1.518;2023-04-24T01:54:00;36.93;;;34.33;;
31808;SDS011;18379;48.208;-1.518;2023-04-24T01:59:01;36.10;;;33.90;;
31808;SDS011;18379;48.208;-1.518;2023-04-24T02:04:06;36.10;;;33.67;;
31808;SDS011;18379;48.208;-1.518;2023-04-24T02:09:07;38.83;;;35.87;;
31808;SDS011;18379;48.208;-1.518;2023-04-24T02:14:08;39.80;;;37.20;;
31808;SDS011;18379;48.208;-1.518;2023-04-24T02:19:09;39.57;;;36.73;;
31808;SDS011;18379;48.208;-1.518;2023-04-24T02:24:10;39.47;;;36.67;;
31808;SDS011;18379;48.208;-1.518;2023-04-24T02:29:11;40.40;;;37.47;;
31808;SDS011;18379;48.208;-1.518;2023-04-24T02:34:12;41.53;;;38.50;;
31808;SDS011;18379;48.208;-1.518;2023-04-24T02:39:13;41.50;;;38.20;;
31808;SDS011;18379;48.208;-1.518;2023-04-24T02:44:14;41.43;;;38.50;;
31808;SDS011;18379;48.208;-1.518;2023-04-24T02:49:15;53.97;;;49.27;;
31808;SDS011;18379;48.208;-1.518;2023-04-24T02:54:15;53.87;;;49.03;;
31808;SDS011;18379;48.208;-1.518;2023-04-24T02:59:16;52.77;;;48.37;;
31808;SDS011;18379;48.208;-1.518;2023-04-24T03:04:17;56.07;;;51.00;;
31808;SDS011;18379;48.208;-1.518;2023-04-24T03:09:20;54.13;;;49.47;;
31808;SDS011;18379;48.208;-1.518;2023-04-24T03:14:21;55.27;;;50.33;;
31808;SDS011;18379;48.208;-1.518;2023-04-24T03:19:22;53.77;;;49.07;;
31808;SDS011;18379;48.208;-1.518;2023-04-24T03:24:23;50.90;;;46.97;;
31808;SDS011;18379;48.208;-1.518;2023-04-24T03:29:24;44.33;;;41.37;;
31808;SDS011;18379;48.208;-1.518;2023-04-24T03:34:25;40.00;;;37.37;;
31808;SDS011;18379;48.208;-1.518;2023-04-24T03:39:26;40.47;;;37.63;;
31808;SDS011;18379;48.208;-1.518;2023-04-24T03:44:27;40.87;;;37.80;;
31808;SDS011;18379;48.208;-1.518;2023-04-24T03:49:28;40.63;;;37.93;;
31808;SDS011;18379;48.208;-1.518;2023-04-24T03:54:29;41.57;;;38.77;;
31808;SDS011;18379;48.208;-1.518;2023-04-24T03:59:30;40.57;;;38.03;;
31808;SDS011;18379;48.208;-1.518;2023-04-24T04:04:31;41.17;;;38.17;;
31808;SDS011;18379;48.208;-1.518;2023-04-24T04:09:31;40.83;;;38.23;;
31808;SDS011;18379;48.208;-1.518;2023-04-24T04:14:33;39.97;;;37.60;;
31808;SDS011;18379;48.208;-1.518;2023-04-24T04:19:34;41.13;;;38.43;;
31808;SDS011;18379;48.208;-1.518;2023-04-24T04:24:35;40.57;;;37.77;;
31808;SDS011;18379;48.208;-1.518;2023-04-24T04:29:38;43.03;;;40.07;;
31808;SDS011;18379;48.208;-1.518;2023-04-24T04:34:40;43.80;;;40.40;;
31808;SDS011;18379;48.208;-1.518;2023-04-24T04:39:40;42.60;;;39.43;;
31808;SDS011;18379;48.208;-1.518;2023-04-24T04:44:41;45.07;;;41.70;;
31808;SDS011;18379;48.208;-1.518;2023-04-24T04:49:43;54.73;;;50.30;;
31808;SDS011;18379;48.208;-1.518;2023-04-24T04:54:43;56.20;;;51.57;;
31808;SDS011;18379;48.208;-1.518;2023-04-24T04:59:44;55.13;;;50.33;;
31808;SDS011;18379;48.208;-1.518;2023-04-24T05:04:45;54.90;;;50.53;;
31808;SDS011;18379;48.208;-1.518;2023-04-24T05:09:46;56.30;;;51.40;;
31808;SDS011;18379;48.208;-1.518;2023-04-24T05:14:46;56.83;;;51.97;;
31808;SDS011;18379;48.208;-1.518;2023-04-24T05:19:47;54.23;;;49.57;;
31808;SDS011;18379;48.208;-1.518;2023-04-24T05:24:48;55.93;;;51.00;;
31808;SDS011;18379;48.208;-1.518;2023-04-24T05:29:49;59.20;;;53.90;;
31808;SDS011;18379;48.208;-1.518;2023-04-24T05:34:49;57.27;;;52.00;;
31808;SDS011;18379;48.208;-1.518;2023-04-24T05:39:50;64.10;;;57.80;;
31808;SDS011;18379;48.208;-1.518;2023-04-24T05:44:51;58.50;;;52.80;;
31808;SDS011;18379;48.208;-1.518;2023-04-24T05:49:54;50.70;;;45.83;;
31808;SDS011;18379;48.208;-1.518;2023-04-24T05:54:54;46.13;;;42.10;;
31808;SDS011;18379;48.208;-1.518;2023-04-24T05:59:55;43.50;;;40.00;;
31808;SDS011;18379;48.208;-1.518;2023-04-24T06:04:56;45.87;;;42.37;;
31808;SDS011;18379;48.208;-1.518;2023-04-24T06:09:57;41.10;;;38.30;;
31808;SDS011;18379;48.208;-1.518;2023-04-24T06:14:58;45.43;;;42.10;;
31808;SDS011;18379;48.208;-1.518;2023-04-24T06:19:58;43.53;;;40.17;;
31808;SDS011;18379;48.208;-1.518;2023-04-24T06:24:59;46.10;;;42.40;;
31808;SDS011;18379;48.208;-1.518;2023-04-24T06:30:01;44.30;;;40.87;;
31808;SDS011;18379;48.208;-1.518;2023-04-24T06:35:02;43.77;;;40.50;;
31808;SDS011;18379;48.208;-1.518;2023-04-24T06:40:08;48.30;;;44.17;;
31808;SDS011;18379;48.208;-1.518;2023-04-24T06:45:10;46.30;;;42.70;;
31808;SDS011;18379;48.208;-1.518;2023-04-24T06:50:11;44.13;;;40.80;;
31808;SDS011;18379;48.208;-1.518;2023-04-24T06:55:13;61.43;;;55.80;;
31808;SDS011;18379;48.208;-1.518;2023-04-24T07:00:16;57.63;;;52.73;;
31808;SDS011;18379;48.208;-1.518;2023-04-24T07:05:17;61.20;;;55.70;;
31808;SDS011;18379;48.208;-1.518;2023-04-24T07:10:19;55.17;;;50.53;;
31808;SDS011;18379;48.208;-1.518;2023-04-24T07:15:21;54.20;;;49.73;;
31808;SDS011;18379;48.208;-1.518;2023-04-24T07:20:22;57.40;;;51.90;;
31808;SDS011;18379;48.208;-1.518;2023-04-24T07:25:23;53.80;;;49.40;;
31808;SDS011;18379;48.208;-1.518;2023-04-24T07:30:23;48.77;;;45.40;;
31808;SDS011;18379;48.208;-1.518;2023-04-24T07:35:24;43.07;;;40.03;;
31808;SDS011;18379;48.208;-1.518;2023-04-24T07:40:26;41.70;;;39.20;;
31808;SDS011;18379;48.208;-1.518;2023-04-24T07:45:27;41.50;;;39.00;;
31808;SDS011;18379;48.208;-1.518;2023-04-24T07:50:28;41.10;;;38.73;;
31808;SDS011;18379;48.208;-1.518;2023-04-24T07:55:29;41.23;;;38.83;;
31808;SDS011;18379;48.208;-1.518;2023-04-24T08:00:30;41.10;;;38.73;;
31808;SDS011;18379;48.208;-1.518;2023-04-24T08:05:31;43.27;;;40.57;;
31808;SDS011;18379;48.208;-1.518;2023-04-24T08:10:33;44.13;;;41.40;;
31808;SDS011;18379;48.208;-1.518;2023-04-24T08:15:34;42.77;;;40.00;;
31808;SDS011;18379;48.208;-1.518;2023-04-24T08:20:38;44.57;;;41.63;;
31808;SDS011;18379;48.208;-1.518;2023-04-24T08:25:39;46.37;;;43.17;;
31808;SDS011;18379;48.208;-1.518;2023-04-24T08:30:43;48.03;;;44.63;;
31808;SDS011;18379;48.208;-1.518;2023-04-24T08:35:44;47.77;;;44.40;;
31808;SDS011;18379;48.208;-1.518;2023-04-24T08:40:45;59.70;;;54.93;;
31808;SDS011;18379;48.208;-1.518;2023-04-24T08:45:49;46.17;;;43.00;;
31808;SDS011;18379;48.208;-1.518;2023-04-24T08:50:51;57.00;;;52.53;;
31808;SDS011;18379;48.208;-1.518;2023-04-24T08:55:52;58.73;;;54.03;;
31808;SDS011;18379;48.208;-1.518;2023-04-24T09:00:55;56.17;;;51.53;;
31808;SDS011;18379;48.208;-1.518;2023-04-24T09:05:56;45.43;;;42.53;;
31808;SDS011;18379;48.208;-1.518;2023-04-24T09:10:58;50.43;;;46.57;;
31808;SDS011;18379;48.208;-1.518;2023-04-24T09:15:59;46.17;;;43.17;;
31808;SDS011;18379;48.208;-1.518;2023-04-24T09:21:06;44.53;;;41.93;;
31808;SDS011;18379;48.208;-1.518;2023-04-24T09:26:08;54.50;;;50.43;;
31808;SDS011;18379;48.208;-1.518;2023-04-24T09:31:16;57.90;;;53.43;;
31808;SDS011;18379;48.208;-1.518;2023-04-24T09:36:31;58.63;;;54.10;;
31808;SDS011;18379;48.208;-1.518;2023-04-24T09:41:45;57.33;;;52.97;;
31808;SDS011;18379;48.208;-1.518;2023-04-24T09:46:50;56.40;;;52.40;;
31808;SDS011;18379;48.208;-1.518;2023-04-24T09:51:52;58.40;;;53.80;;
31808;SDS011;18379;48.208;-1.518;2023-04-24T09:57:09;49.03;;;45.27;;
31808;SDS011;18379;48.208;-1.518;2023-04-24T10:02:16;49.60;;;46.10;;
31808;SDS011;18379;48.208;-1.518;2023-04-24T10:07:19;48.23;;;45.00;;
31808;SDS011;18379;48.208;-1.518;2023-04-24T10:12:19;48.83;;;45.50;;
31808;SDS011;18379;48.208;-1.518;2023-04-24T10:17:21;50.87;;;47.27;;
31808;SDS011;18379;48.208;-1.518;2023-04-24T10:22:24;48.13;;;44.53;;
31808;SDS011;18379;48.208;-1.518;2023-04-24T10:27:26;49.23;;;45.67;;
31808;SDS011;18379;48.208;-1.518;2023-04-24T10:32:28;47.80;;;44.53;;
31808;SDS011;18379;48.208;-1.518;2023-04-24T10:37:33;47.77;;;44.43;;
31808;SDS011;18379;48.208;-1.518;2023-04-24T10:42:40;49.07;;;45.70;;
31808;SDS011;18379;48.208;-1.518;2023-04-24T10:47:42;50.07;;;46.73;;
31808;SDS011;18379;48.208;-1.518;2023-04-24T10:52:50;50.70;;;47.10;;
31808;SDS011;18379;48.208;-1.518;2023-04-24T10:58:02;49.93;;;46.53;;
31808;SDS011;18379;48.208;-1.518;2023-04-24T11:03:22;48.30;;;44.70;;
31808;SDS011;18379;48.208;-1.518;2023-04-24T11:08:26;52.97;;;49.13;;
31808;SDS011;18379;48.208;-1.518;2023-04-24T11:19:02;49.50;;;45.93;;
31808;SDS011;18379;48.208;-1.518;2023-04-24T11:29:38;53.07;;;49.13;;
31808;SDS011;18379;48.208;-1.518;2023-04-24T11:34:50;64.03;;;58.93;;
31808;SDS011;18379;48.208;-1.518;2023-04-24T11:39:53;50.73;;;47.27;;
31808;SDS011;18379;48.208;-1.518;2023-04-24T11:44:55;48.77;;;45.33;;
31808;SDS011;18379;48.208;-1.518;2023-04-24T11:49:57;48.07;;;44.97;;
31808;SDS011;18379;48.208;-1.518;2023-04-24T11:54:58;48.07;;;44.97;;
31808;SDS011;18379;48.208;-1.518;2023-04-24T12:00:00;47.80;;;44.73;;
31808;SDS011;18379;48.208;-1.518;2023-04-24T12:05:08;49.83;;;46.43;;
31808;SDS011;18379;48.208;-1.518;2023-04-24T12:10:09;51.60;;;47.67;;
31808;SDS011;18379;48.208;-1.518;2023-04-24T12:15:13;51.37;;;47.40;;
31808;SDS011;18379;48.208;-1.518;2023-04-24T12:20:23;52.30;;;48.47;;
31808;SDS011;18379;48.208;-1.518;2023-04-24T12:25:28;48.77;;;45.53;;
31808;SDS011;18379;48.208;-1.518;2023-04-24T12:30:31;50.47;;;47.00;;
31808;SDS011;18379;48.208;-1.518;2023-04-24T12:36:25;50.87;;;47.50;;
31808;SDS011;18379;48.208;-1.518;2023-04-24T12:41:11;52.13;;;48.33;;
31808;SDS011;18379;48.208;-1.518;2023-04-24T12:46:13;60.37;;;55.67;;
31808;SDS011;18379;48.208;-1.518;2023-04-24T12:51:14;63.30;;;58.30;;
31808;SDS011;18379;48.208;-1.518;2023-04-24T12:56:15;62.97;;;58.10;;
31808;SDS011;18379;48.208;-1.518;2023-04-24T13:01:17;63.30;;;58.37;;
31808;SDS011;18379;48.208;-1.518;2023-04-24T13:06:18;63.47;;;58.90;;
31808;SDS011;18379;48.208;-1.518;2023-04-24T13:11:18;63.30;;;58.43;;
31808;SDS011;18379;48.208;-1.518;2023-04-24T13:16:19;62.67;;;58.03;;
31808;SDS011;18379;48.208;-1.518;2023-04-24T13:21:20;64.37;;;59.43;;
31808;SDS011;18379;48.208;-1.518;2023-04-24T13:26:21;63.87;;;59.03;;
31808;SDS011;18379;48.208;-1.518;2023-04-24T13:31:22;64.77;;;59.47;;
31808;SDS011;18379;48.208;-1.518;2023-04-24T13:36:22;56.87;;;52.47;;
31808;SDS011;18379;48.208;-1.518;2023-04-24T13:41:23;54.13;;;50.23;;
31808;SDS011;18379;48.208;-1.518;2023-04-24T13:46:24;52.63;;;48.77;;
31808;SDS011;18379;48.208;-1.518;2023-04-24T13:51:25;51.37;;;47.87;;
31808;SDS011;18379;48.208;-1.518;2023-04-24T13:56:29;49.60;;;46.47;;
31808;SDS011;18379;48.208;-1.518;2023-04-24T14:01:31;50.57;;;47.07;;
31808;SDS011;18379;48.208;-1.518;2023-04-24T14:06:31;50.23;;;46.97;;
31808;SDS011;18379;48.208;-1.518;2023-04-24T14:11:33;50.23;;;46.87;;
31808;SDS011;18379;48.208;-1.518;2023-04-24T14:16:34;49.97;;;46.60;;
31808;SDS011;18379;48.208;-1.518;2023-04-24T14:21:37;51.37;;;47.70;;
31808;SDS011;18379;48.208;-1.518;2023-04-24T14:26:38;51.20;;;47.70;;
31808;SDS011;18379;48.208;-1.518;2023-04-24T14:31:41;52.87;;;48.50;;
31808;SDS011;18379;48.208;-1.518;2023-04-24T14:36:43;52.37;;;48.47;;
31808;SDS011;18379;48.208;-1.518;2023-04-24T14:41:44;52.13;;;48.67;;
31808;SDS011;18379;48.208;-1.518;2023-04-24T14:46:44;52.70;;;48.97;;
31808;SDS011;18379;48.208;-1.518;2023-04-24T14:51:46;51.70;;;48.20;;
31808;SDS011;18379;48.208;-1.518;2023-04-24T14:56:46;54.00;;;50.20;;
31808;SDS011;18379;48.208;-1.518;2023-04-24T15:01:47;52.83;;;49.33;;
31808;SDS011;18379;48.208;-1.518;2023-04-24T15:06:48;54.53;;;50.83;;
31808;SDS011;18379;48.208;-1.518;2023-04-24T15:11:50;54.77;;;51.17;;
31808;SDS011;18379;48.208;-1.518;2023-04-24T15:16:51;55.97;;;52.07;;
31808;SDS011;18379;48.208;-1.518;2023-04-24T15:21:51;54.23;;;50.53;;
31808;SDS011;18379;48.208;-1.518;2023-04-24T15:26:53;55.57;;;51.77;;
31808;SDS011;18379;48.208;-1.518;2023-04-24T15:31:55;55.67;;;51.33;;
31808;SDS011;18379;48.208;-1.518;2023-04-24T15:36:56;55.43;;;51.37;;
31808;SDS011;18379;48.208;-1.518;2023-04-24T15:41:56;54.37;;;50.67;;
31808;SDS011;18379;48.208;-1.518;2023-04-24T15:46:59;59.47;;;54.20;;
31808;SDS011;18379;48.208;-1.518;2023-04-24T15:52:01;52.90;;;49.40;;
31808;SDS011;18379;48.208;-1.518;2023-04-24T15:57:02;58.60;;;53.17;;
31808;SDS011;18379;48.208;-1.518;2023-04-24T16:02:02;54.17;;;49.67;;
31808;SDS011;18379;48.208;-1.518;2023-04-24T16:07:04;54.27;;;49.73;;
31808;SDS011;18379;48.208;-1.518;2023-04-24T16:12:05;52.93;;;48.83;;
31808;SDS011;18379;48.208;-1.518;2023-04-24T16:17:05;53.43;;;49.03;;
31808;SDS011;18379;48.208;-1.518;2023-04-24T16:22:06;48.90;;;45.70;;
31808;SDS011;18379;48.208;-1.518;2023-04-24T16:27:07;50.47;;;47.17;;
31808;SDS011;18379;48.208;-1.518;2023-04-24T16:32:08;49.67;;;46.13;;
31808;SDS011;18379;48.208;-1.518;2023-04-24T16:37:10;50.07;;;46.90;;
31808;SDS011;18379;48.208;-1.518;2023-04-24T16:42:11;50.63;;;46.97;;
31808;SDS011;18379;48.208;-1.518;2023-04-24T16:47:12;50.97;;;47.17;;
31808;SDS011;18379;48.208;-1.518;2023-04-24T16:52:13;51.10;;;47.50;;
31808;SDS011;18379;48.208;-1.518;2023-04-24T16:57:15;51.40;;;47.63;;
31808;SDS011;18379;48.208;-1.518;2023-04-24T17:02:16;52.97;;;48.83;;
31808;SDS011;18379;48.208;-1.518;2023-04-24T17:07:16;52.47;;;48.60;;
31808;SDS011;18379;48.208;-1.518;2023-04-24T17:12:17;51.07;;;47.47;;
31808;SDS011;18379;48.208;-1.518;2023-04-24T17:17:19;51.10;;;47.40;;
31808;SDS011;18379;48.208;-1.518;2023-04-24T17:22:22;52.60;;;48.63;;
31808;SDS011;18379;48.208;-1.518;2023-04-24T17:27:22;52.40;;;48.70;;
31808;SDS011;18379;48.208;-1.518;2023-04-24T17:32:24;51.90;;;48.23;;
31808;SDS011;18379;48.208;-1.518;2023-04-24T17:37:25;52.00;;;48.23;;
31808;SDS011;18379;48.208;-1.518;2023-04-24T17:42:25;51.87;;;48.10;;
31808;SDS011;18379;48.208;-1.518;2023-04-24T17:47:26;51.77;;;47.63;;
31808;SDS011;18379;48.208;-1.518;2023-04-24T17:52:29;53.10;;;49.13;;
31808;SDS011;18379;48.208;-1.518;2023-04-24T17:57:30;51.87;;;47.97;;
31808;SDS011;18379;48.208;-1.518;2023-04-24T18:02:31;48.40;;;45.30;;
31808;SDS011;18379;48.208;-1.518;2023-04-24T18:07:32;50.60;;;46.63;;
31808;SDS011;18379;48.208;-1.518;2023-04-24T18:12:33;49.30;;;45.70;;
31808;SDS011;18379;48.208;-1.518;2023-04-24T18:17:34;49.17;;;45.77;;
31808;SDS011;18379;48.208;-1.518;2023-04-24T18:22:34;48.23;;;45.03;;
31808;SDS011;18379;48.208;-1.518;2023-04-24T18:27:36;50.10;;;46.37;;
31808;SDS011;18379;48.208;-1.518;2023-04-24T18:32:40;49.13;;;45.60;;
31808;SDS011;18379;48.208;-1.518;2023-04-24T18:37:41;46.20;;;43.23;;
31808;SDS011;18379;48.208;-1.518;2023-04-24T18:42:42;47.70;;;44.10;;
31808;SDS011;18379;48.208;-1.518;2023-04-24T18:47:43;49.10;;;45.53;;
31808;SDS011;18379;48.208;-1.518;2023-04-24T18:52:44;47.57;;;44.07;;
31808;SDS011;18379;48.208;-1.518;2023-04-24T18:57:45;47.30;;;43.90;;
31808;SDS011;18379;48.208;-1.518;2023-04-24T19:02:45;48.80;;;45.17;;
31808;SDS011;18379;48.208;-1.518;2023-04-24T19:07:46;46.67;;;43.37;;
31808;SDS011;18379;48.208;-1.518;2023-04-24T19:12:47;49.53;;;45.40;;
31808;SDS011;18379;48.208;-1.518;2023-04-24T19:17:55;48.57;;;44.77;;
31808;SDS011;18379;48.208;-1.518;2023-04-24T19:22:55;46.30;;;42.97;;
31808;SDS011;18379;48.208;-1.518;2023-04-24T19:27:56;46.73;;;43.17;;
31808;SDS011;18379;48.208;-1.518;2023-04-24T19:32:57;46.97;;;43.17;;
31808;SDS011;18379;48.208;-1.518;2023-04-24T19:38:07;52.47;;;47.37;;
31808;SDS011;18379;48.208;-1.518;2023-04-24T19:43:08;45.77;;;42.33;;
31808;SDS011;18379;48.208;-1.518;2023-04-24T19:53:41;43.97;;;41.00;;
31808;SDS011;18379;48.208;-1.518;2023-04-24T19:58:42;49.40;;;45.60;;
31808;SDS011;18379;48.208;-1.518;2023-04-24T20:03:47;45.90;;;42.80;;
31808;SDS011;18379;48.208;-1.518;2023-04-24T20:09:17;44.37;;;41.17;;
31808;SDS011;18379;48.208;-1.518;2023-04-24T20:14:21;47.10;;;43.33;;
31808;SDS011;18379;48.208;-1.518;2023-04-24T20:19:22;47.80;;;44.00;;
31808;SDS011;18379;48.208;-1.518;2023-04-24T20:24:23;48.80;;;44.70;;
31808;SDS011;18379;48.208;-1.518;2023-04-24T20:29:23;47.83;;;44.07;;
31808;SDS011;18379;48.208;-1.518;2023-04-24T20:34:28;49.07;;;45.27;;
31808;SDS011;18379;48.208;-1.518;2023-04-24T20:39:32;46.27;;;42.87;;
31808;SDS011;18379;48.208;-1.518;2023-04-24T20:44:33;46.53;;;42.97;;
31808;SDS011;18379;48.208;-1.518;2023-04-24T20:49:34;48.67;;;44.73;;
31808;SDS011;18379;48.208;-1.518;2023-04-24T20:54:35;49.90;;;45.67;;
31808;SDS011;18379;48.208;-1.518;2023-04-24T20:59:36;47.23;;;43.20;;
31808;SDS011;18379;48.208;-1.518;2023-04-24T21:04:37;49.57;;;45.63;;
31808;SDS011;18379;48.208;-1.518;2023-04-24T21:09:38;45.07;;;41.80;;
31808;SDS011;18379;48.208;-1.518;2023-04-24T21:14:39;45.43;;;41.77;;
31808;SDS011;18379;48.208;-1.518;2023-04-24T21:19:40;45.97;;;42.53;;
31808;SDS011;18379;48.208;-1.518;2023-04-24T21:24:41;45.43;;;42.20;;
31808;SDS011;18379;48.208;-1.518;2023-04-24T21:29:42;44.87;;;41.67;;
31808;SDS011;18379;48.208;-1.518;2023-04-24T21:34:43;45.87;;;42.30;;
31808;SDS011;18379;48.208;-1.518;2023-04-24T21:39:43;56.63;;;51.23;;
31808;SDS011;18379;48.208;-1.518;2023-04-24T21:44:44;47.23;;;43.47;;
31808;SDS011;18379;48.208;-1.518;2023-04-24T21:49:45;47.63;;;43.33;;
31808;SDS011;18379;48.208;-1.518;2023-04-24T21:54:46;48.27;;;44.37;;
31808;SDS011;18379;48.208;-1.518;2023-04-24T21:59:47;46.60;;;43.07;;
31808;SDS011;18379;48.208;-1.518;2023-04-24T22:04:48;47.47;;;43.87;;
31808;SDS011;18379;48.208;-1.518;2023-04-24T22:09:49;47.53;;;43.63;;
31808;SDS011;18379;48.208;-1.518;2023-04-24T22:14:50;50.10;;;45.63;;
31808;SDS011;18379;48.208;-1.518;2023-04-24T22:19:50;47.20;;;43.40;;
31808;SDS011;18379;48.208;-1.518;2023-04-24T22:24:51;47.27;;;43.53;;
31808;SDS011;18379;48.208;-1.518;2023-04-24T22:29:52;45.90;;;42.20;;
31808;SDS011;18379;48.208;-1.518;2023-04-24T22:34:53;46.47;;;42.17;;
31808;SDS011;18379;48.208;-1.518;2023-04-24T22:39:54;45.67;;;41.60;;
31808;SDS011;18379;48.208;-1.518;2023-04-24T22:44:55;46.43;;;42.57;;
31808;SDS011;18379;48.208;-1.518;2023-04-24T22:49:56;45.03;;;41.30;;
31808;SDS011;18379;48.208;-1.518;2023-04-24T22:54:57;45.37;;;41.60;;
31808;SDS011;18379;48.208;-1.518;2023-04-24T22:59:58;44.50;;;40.50;;
31808;SDS011;18379;48.208;-1.518;2023-04-24T23:04:59;46.13;;;41.97;;
31808;SDS011;18379;48.208;-1.518;2023-04-24T23:10:00;41.10;;;38.27;;
31808;SDS011;18379;48.208;-1.518;2023-04-24T23:15:01;40.83;;;37.63;;
31808;SDS011;18379;48.208;-1.518;2023-04-24T23:20:02;41.70;;;38.17;;
31808;SDS011;18379;48.208;-1.518;2023-04-24T23:25:03;42.27;;;38.50;;
31808;SDS011;18379;48.208;-1.518;2023-04-24T23:30:05;39.60;;;36.93;;
31808;SDS011;18379;48.208;-1.518;2023-04-24T23:35:06;39.77;;;36.63;;
31808;SDS011;18379;48.208;-1.518;2023-04-24T23:40:08;40.47;;;37.13;;
31808;SDS011;18379;48.208;-1.518;2023-04-24T23:45:09;39.57;;;36.17;;
31808;SDS011;18379;48.208;-1.518;2023-04-24T23:50:10;41.30;;;37.23;;
31808;SDS011;18379;48.208;-1.518;2023-04-24T23:55:11;41.17;;;37.43;;
